Time;durP1;ratioP1;P1;durP2;ratioP2;P2;SDS_P1;SDS_P2;PMS_P1;PMS_P2;Temp;Humidity;BMP_temperature;BMP_pressure;BME280_temperature;BME280_humidity;BME280_pressure;Samples;Min_cycle;Max_cycle;Signal;HPM_P1;HPM_P2
2022/11/14 00:00:54;;;;;;;67.03;46.43;;;;;;;;;;5010628;28;21107;-45
2022/11/14 00:03:20;;;;;;;62.47;43.80;;;;;;;;;;5009878;28;20898;-45
2022/11/14 00:05:47;;;;;;;60.63;44.27;;;;;;;;;;5010765;28;20180;-45
2022/11/14 00:08:18;;;;;;;65.97;45.50;;;;;;;;;;5013852;28;20181;-45
2022/11/14 00:10:48;;;;;;;62.63;44.37;;;;;;;;;;5015239;28;20724;-45
2022/11/14 00:13:15;;;;;;;60.07;43.30;;;;;;;;;;5010384;28;20577;-45
2022/11/14 00:15:41;;;;;;;60.77;44.00;;;;;;;;;;5007443;28;20177;-43
2022/11/14 00:18:07;;;;;;;61.60;43.17;;;;;;;;;;5010971;28;20183;-42
2022/11/14 00:20:33;;;;;;;61.80;44.53;;;;;;;;;;5011154;28;20191;-43
2022/11/14 00:22:59;;;;;;;61.33;43.00;;;;;;;;;;5011419;28;20176;-43
2022/11/14 00:25:25;;;;;;;63.40;43.97;;;;;;;;;;5010541;28;21456;-43
2022/11/14 00:27:51;;;;;;;60.17;42.97;;;;;;;;;;5007981;28;20192;-43
2022/11/14 00:30:17;;;;;;;59.37;43.40;;;;;;;;;;5010902;28;20177;-43
2022/11/14 00:32:43;;;;;;;59.03;42.33;;;;;;;;;;5011307;28;20545;-44
2022/11/14 00:35:09;;;;;;;62.70;44.00;;;;;;;;;;5012152;28;20188;-44
2022/11/14 00:37:36;;;;;;;60.30;42.37;;;;;;;;;;5011197;28;20651;-44
2022/11/14 00:40:02;;;;;;;57.97;41.00;;;;;;;;;;5011415;28;20181;-44
2022/11/14 00:42:28;;;;;;;68.17;45.40;;;;;;;;;;5013882;28;20786;-44
2022/11/14 00:44:54;;;;;;;63.47;45.60;;;;;;;;;;5013887;28;20368;-44
2022/11/14 00:47:20;;;;;;;63.97;44.50;;;;;;;;;;5013207;28;20184;-44
2022/11/14 00:49:46;;;;;;;58.17;43.07;;;;;;;;;;5012322;28;20283;-44
2022/11/14 00:52:12;;;;;;;58.70;42.20;;;;;;;;;;5013297;28;20925;-44
2022/11/14 00:54:38;;;;;;;56.27;41.07;;;;;;;;;;5014701;28;20187;-44
2022/11/14 00:57:04;;;;;;;61.10;42.87;;;;;;;;;;5010010;28;20199;-44
2022/11/14 00:59:30;;;;;;;64.80;44.80;;;;;;;;;;4992349;28;21234;-44
2022/11/14 01:01:57;;;;;;;54.50;40.40;;;;;;;;;;5013442;28;20590;-44
2022/11/14 01:04:23;;;;;;;56.00;41.43;;;;;;;;;;5013859;28;20920;-44
2022/11/14 01:06:49;;;;;;;64.93;44.60;;;;;;;;;;4996261;28;20258;-44
2022/11/14 01:09:15;;;;;;;57.67;41.70;;;;;;;;;;5012568;28;20184;-44
2022/11/14 01:11:41;;;;;;;52.27;38.80;;;;;;;;;;5012698;28;20184;-44
2022/11/14 01:14:07;;;;;;;58.63;42.50;;;;;;;;;;5013785;28;20662;-44
2022/11/14 01:16:34;;;;;;;60.57;43.57;;;;;;;;;;5014476;28;20223;-44
2022/11/14 01:19:01;;;;;;;63.67;44.67;;;;;;;;;;5014614;28;20429;-44
2022/11/14 01:21:27;;;;;;;59.20;42.10;;;;;;;;;;5010459;28;20256;-42
2022/11/14 01:23:53;;;;;;;59.47;39.50;;;;;;;;;;5011810;28;20705;-45
2022/11/14 01:26:19;;;;;;;59.80;42.17;;;;;;;;;;5013668;28;20610;-42
2022/11/14 01:28:45;;;;;;;53.87;38.87;;;;;;;;;;5013684;28;20262;-42
2022/11/14 01:31:13;;;;;;;55.83;40.23;;;;;;;;;;5011535;28;20425;-42
2022/11/14 01:33:39;;;;;;;58.17;38.90;;;;;;;;;;5011102;28;20882;-42
2022/11/14 01:36:05;;;;;;;48.53;35.23;;;;;;;;;;5010910;28;20736;-42
2022/11/14 01:38:32;;;;;;;46.67;34.67;;;;;;;;;;5014314;28;20169;-42
2022/11/14 01:40:58;;;;;;;47.73;34.13;;;;;;;;;;5011612;28;20196;-42
2022/11/14 01:43:25;;;;;;;42.17;32.13;;;;;;;;;;5013378;28;20299;-42
2022/11/14 01:45:51;;;;;;;41.23;31.27;;;;;;;;;;4994684;28;20180;-45
2022/11/14 01:48:23;;;;;;;42.93;31.80;;;;;;;;;;5011119;28;20188;-43
2022/11/14 01:50:53;;;;;;;44.83;32.80;;;;;;;;;;5010244;28;20712;-43
2022/11/14 01:53:19;;;;;;;43.13;32.23;;;;;;;;;;5013148;28;20184;-43
2022/11/14 01:55:45;;;;;;;46.30;33.67;;;;;;;;;;5011754;28;20183;-43
2022/11/14 01:58:12;;;;;;;43.83;32.77;;;;;;;;;;5009448;28;20578;-43
2022/11/14 02:00:38;;;;;;;47.63;34.03;;;;;;;;;;5011693;28;20226;-43
2022/11/14 02:03:04;;;;;;;45.00;32.97;;;;;;;;;;5012977;28;20702;-43
2022/11/14 02:05:30;;;;;;;45.77;34.47;;;;;;;;;;5008371;28;20604;-43
2022/11/14 02:07:56;;;;;;;47.80;34.53;;;;;;;;;;5008938;28;20191;-43
2022/11/14 02:10:22;;;;;;;43.87;30.97;;;;;;;;;;5012121;28;20176;-42
2022/11/14 02:12:49;;;;;;;46.10;33.60;;;;;;;;;;5016434;28;20190;-42
2022/11/14 02:15:15;;;;;;;39.33;28.43;;;;;;;;;;5012755;28;20188;-43
2022/11/14 02:17:42;;;;;;;37.40;27.10;;;;;;;;;;5009230;28;20200;-42
2022/11/14 02:20:11;;;;;;;36.47;27.07;;;;;;;;;;5005369;28;20526;-42
2022/11/14 02:22:41;;;;;;;34.47;24.53;;;;;;;;;;5010730;28;20185;-42
2022/11/14 02:25:09;;;;;;;34.57;25.23;;;;;;;;;;5006773;28;20680;-42
2022/11/14 02:27:35;;;;;;;35.73;26.63;;;;;;;;;;5004381;28;20743;-43
2022/11/14 02:30:03;;;;;;;34.97;26.07;;;;;;;;;;5006606;28;20462;-42
2022/11/14 02:32:29;;;;;;;37.77;28.03;;;;;;;;;;5008068;28;20440;-42
2022/11/14 02:34:56;;;;;;;43.37;31.57;;;;;;;;;;5007358;28;20192;-42
2022/11/14 02:37:22;;;;;;;46.83;33.03;;;;;;;;;;5006857;28;20750;-42
2022/11/14 02:39:48;;;;;;;45.93;32.87;;;;;;;;;;5004115;28;20239;-43
2022/11/14 02:42:14;;;;;;;44.53;33.00;;;;;;;;;;5003979;28;20184;-42
2022/11/14 02:44:40;;;;;;;45.70;34.67;;;;;;;;;;5008452;28;20448;-42
2022/11/14 02:47:06;;;;;;;47.77;34.50;;;;;;;;;;5004785;28;20564;-43
2022/11/14 02:49:32;;;;;;;53.87;39.40;;;;;;;;;;5005908;28;20577;-42
2022/11/14 02:51:58;;;;;;;58.13;39.73;;;;;;;;;;5010700;28;20191;-42
2022/11/14 02:54:24;;;;;;;55.33;37.70;;;;;;;;;;5009523;28;20191;-42
2022/11/14 02:56:50;;;;;;;57.77;39.63;;;;;;;;;;5006063;28;20818;-43
2022/11/14 02:59:16;;;;;;;51.33;38.00;;;;;;;;;;5006529;28;20180;-43
2022/11/14 03:01:42;;;;;;;55.57;39.83;;;;;;;;;;5010012;28;21081;-42
2022/11/14 03:04:08;;;;;;;54.23;40.40;;;;;;;;;;5009999;28;20238;-42
2022/11/14 03:06:35;;;;;;;62.67;42.87;;;;;;;;;;5009207;28;20284;-42
2022/11/14 03:09:01;;;;;;;66.50;44.43;;;;;;;;;;5007255;28;20180;-42
2022/11/14 03:11:27;;;;;;;68.73;47.70;;;;;;;;;;5006182;28;20211;-43
2022/11/14 03:13:53;;;;;;;58.57;43.97;;;;;;;;;;5008645;28;20930;-43
2022/11/14 03:16:19;;;;;;;65.00;46.77;;;;;;;;;;5004025;28;20204;-43
2022/11/14 03:18:45;;;;;;;72.40;47.67;;;;;;;;;;5006938;28;21586;-43
2022/11/14 03:21:16;;;;;;;72.73;50.90;;;;;;;;;;4991470;28;20379;-43
2022/11/14 03:23:43;;;;;;;66.13;46.70;;;;;;;;;;5007434;28;20183;-43
2022/11/14 03:26:10;;;;;;;73.60;50.60;;;;;;;;;;4987190;28;21026;-43
2022/11/14 03:28:37;;;;;;;71.47;50.37;;;;;;;;;;5007385;28;20208;-42
2022/11/14 03:31:03;;;;;;;68.53;47.27;;;;;;;;;;5011548;28;20704;-42
2022/11/14 03:33:29;;;;;;;73.53;48.60;;;;;;;;;;5009638;28;20223;-42
2022/11/14 03:35:55;;;;;;;68.60;48.20;;;;;;;;;;5007567;28;20207;-42
2022/11/14 03:38:24;;;;;;;68.60;47.47;;;;;;;;;;5008047;28;20728;-43
2022/11/14 03:40:50;;;;;;;74.27;51.23;;;;;;;;;;5010765;28;20172;-43
2022/11/14 03:43:17;;;;;;;73.33;49.43;;;;;;;;;;5009450;28;20508;-43
2022/11/14 03:45:43;;;;;;;70.97;47.80;;;;;;;;;;5009266;28;20358;-44
2022/11/14 03:48:09;;;;;;;69.20;48.03;;;;;;;;;;5010132;28;20183;-44
2022/11/14 03:50:35;;;;;;;69.40;47.87;;;;;;;;;;5012069;28;20241;-44
2022/11/14 03:53:01;;;;;;;68.90;47.47;;;;;;;;;;5009373;28;20188;-44
2022/11/14 03:55:28;;;;;;;67.63;46.57;;;;;;;;;;5008647;28;20458;-44
2022/11/14 03:57:54;;;;;;;78.13;51.67;;;;;;;;;;5010411;28;20196;-44
2022/11/14 04:00:20;;;;;;;69.97;46.87;;;;;;;;;;5005529;28;20242;-44
2022/11/14 04:02:46;;;;;;;73.90;50.10;;;;;;;;;;5003371;28;20209;-44
2022/11/14 04:05:13;;;;;;;72.87;48.00;;;;;;;;;;5008212;28;20268;-44
2022/11/14 04:07:39;;;;;;;71.40;50.23;;;;;;;;;;5008781;28;20259;-44
2022/11/14 04:10:06;;;;;;;71.00;48.57;;;;;;;;;;5005474;28;20614;-44
2022/11/14 04:12:32;;;;;;;71.60;49.57;;;;;;;;;;5012303;28;20717;-44
2022/11/14 04:14:58;;;;;;;77.63;51.33;;;;;;;;;;5007697;28;20715;-44
2022/11/14 04:17:24;;;;;;;81.23;52.13;;;;;;;;;;5007442;28;20867;-44
2022/11/14 04:19:50;;;;;;;79.13;52.43;;;;;;;;;;5005249;28;20169;-44
2022/11/14 04:22:16;;;;;;;82.17;53.97;;;;;;;;;;5009811;28;21159;-44
2022/11/14 04:24:42;;;;;;;74.57;51.47;;;;;;;;;;5008729;28;20172;-44
2022/11/14 04:27:08;;;;;;;85.47;56.50;;;;;;;;;;5006337;28;20175;-44
2022/11/14 04:29:34;;;;;;;80.07;54.33;;;;;;;;;;5006626;28;20241;-44
2022/11/14 04:32:00;;;;;;;92.13;59.00;;;;;;;;;;5007874;28;20175;-44
2022/11/14 04:34:26;;;;;;;94.30;59.07;;;;;;;;;;5005972;28;20177;-43
2022/11/14 04:36:52;;;;;;;96.57;60.50;;;;;;;;;;5007450;28;20204;-44
2022/11/14 04:39:18;;;;;;;92.07;58.27;;;;;;;;;;5007688;28;20687;-44
2022/11/14 04:41:45;;;;;;;91.03;57.90;;;;;;;;;;5009404;28;20172;-44
2022/11/14 04:44:11;;;;;;;87.10;57.77;;;;;;;;;;5010982;28;20287;-44
2022/11/14 04:46:37;;;;;;;86.23;56.57;;;;;;;;;;5011810;28;20237;-43
2022/11/14 04:49:03;;;;;;;83.83;54.00;;;;;;;;;;5007928;28;20184;-42
2022/11/14 04:51:29;;;;;;;85.90;55.33;;;;;;;;;;5009598;28;20710;-43
2022/11/14 04:53:55;;;;;;;85.97;55.07;;;;;;;;;;5011671;28;20183;-43
2022/11/14 04:56:22;;;;;;;90.80;58.70;;;;;;;;;;5009844;28;20192;-43
2022/11/14 04:58:48;;;;;;;83.93;54.67;;;;;;;;;;5007633;28;20613;-43
2022/11/14 05:01:15;;;;;;;98.57;59.27;;;;;;;;;;5009615;28;20171;-42
2022/11/14 05:03:41;;;;;;;81.63;53.60;;;;;;;;;;5014317;28;20390;-43
2022/11/14 05:06:07;;;;;;;81.97;55.50;;;;;;;;;;5012374;28;20319;-43
2022/11/14 05:08:33;;;;;;;83.07;54.33;;;;;;;;;;5009198;28;20281;-43
2022/11/14 05:10:59;;;;;;;80.17;53.27;;;;;;;;;;4995191;28;20362;-44
2022/11/14 05:13:25;;;;;;;76.63;50.93;;;;;;;;;;5014277;28;20510;-43
2022/11/14 05:15:51;;;;;;;78.63;52.53;;;;;;;;;;5010677;28;20183;-42
2022/11/14 05:18:18;;;;;;;85.80;54.40;;;;;;;;;;5012432;28;20683;-43
2022/11/14 05:20:44;;;;;;;79.53;52.80;;;;;;;;;;5013934;28;20682;-44
2022/11/14 05:23:18;;;;;;;88.97;54.63;;;;;;;;;;5011851;28;20944;-44
2022/11/14 05:25:44;;;;;;;83.20;53.30;;;;;;;;;;5009878;28;20243;-44
2022/11/14 05:28:10;;;;;;;97.10;59.33;;;;;;;;;;5013210;28;20708;-44
2022/11/14 05:30:36;;;;;;;91.23;57.43;;;;;;;;;;5008366;28;20725;-43
2022/11/14 05:33:02;;;;;;;87.30;55.17;;;;;;;;;;5005693;28;20934;-43
2022/11/14 05:35:28;;;;;;;80.53;51.93;;;;;;;;;;5006529;28;20697;-43
2022/11/14 05:37:54;;;;;;;83.57;54.07;;;;;;;;;;5004059;28;20399;-43
2022/11/14 05:40:20;;;;;;;91.43;56.40;;;;;;;;;;5005288;28;20603;-43
2022/11/14 05:42:47;;;;;;;90.73;56.10;;;;;;;;;;5006007;28;20183;-43
2022/11/14 05:45:13;;;;;;;84.83;53.97;;;;;;;;;;5003462;28;20591;-44
2022/11/14 05:47:39;;;;;;;84.13;51.83;;;;;;;;;;5004776;28;20275;-43
2022/11/14 05:50:05;;;;;;;81.13;52.07;;;;;;;;;;5002098;28;20181;-44
2022/11/14 05:52:31;;;;;;;77.30;50.70;;;;;;;;;;5007004;28;20187;-44
2022/11/14 05:54:57;;;;;;;70.03;47.70;;;;;;;;;;5006731;28;20297;-44
2022/11/14 05:57:23;;;;;;;65.77;44.87;;;;;;;;;;5005320;28;20350;-44
2022/11/14 05:59:49;;;;;;;70.90;46.77;;;;;;;;;;5008054;28;20187;-43
2022/11/14 06:02:15;;;;;;;67.40;44.50;;;;;;;;;;5006168;28;20173;-43
2022/11/14 06:04:41;;;;;;;67.97;45.63;;;;;;;;;;5007779;28;20168;-44
2022/11/14 06:07:08;;;;;;;66.70;45.23;;;;;;;;;;5004241;28;20390;-44
2022/11/14 06:09:34;;;;;;;67.90;45.47;;;;;;;;;;5010270;28;20199;-43
2022/11/14 06:12:02;;;;;;;70.77;47.67;;;;;;;;;;5011351;28;21123;-44
2022/11/14 06:14:28;;;;;;;65.83;44.63;;;;;;;;;;5013074;28;20340;-43
2022/11/14 06:16:54;;;;;;;69.03;47.13;;;;;;;;;;5010086;28;20276;-44
2022/11/14 06:19:20;;;;;;;75.17;48.80;;;;;;;;;;5007358;28;20471;-43
2022/11/14 06:21:46;;;;;;;71.03;47.83;;;;;;;;;;4990068;28;20981;-44
2022/11/14 06:24:12;;;;;;;76.40;47.17;;;;;;;;;;5012068;28;20787;-43
2022/11/14 06:26:38;;;;;;;70.03;46.80;;;;;;;;;;5009467;28;20772;-43
2022/11/14 06:29:06;;;;;;;67.50;44.67;;;;;;;;;;5011552;28;20438;-43
2022/11/14 06:31:32;;;;;;;74.47;48.33;;;;;;;;;;5012840;28;20299;-42
2022/11/14 06:33:58;;;;;;;74.53;47.67;;;;;;;;;;5011398;28;20290;-43
2022/11/14 06:36:24;;;;;;;71.03;46.13;;;;;;;;;;5009337;28;20696;-43
2022/11/14 06:38:50;;;;;;;69.10;44.57;;;;;;;;;;5011267;28;20172;-43
2022/11/14 06:41:18;;;;;;;73.57;47.43;;;;;;;;;;4993428;28;20884;-43
2022/11/14 06:43:45;;;;;;;78.67;49.20;;;;;;;;;;5009853;28;20647;-43
2022/11/14 06:46:12;;;;;;;74.30;47.87;;;;;;;;;;5009109;28;20189;-43
2022/11/14 06:48:39;;;;;;;74.17;46.43;;;;;;;;;;5008365;28;20172;-43
2022/11/14 06:51:05;;;;;;;70.30;45.27;;;;;;;;;;5012144;28;20176;-44
2022/11/14 06:53:32;;;;;;;73.03;47.67;;;;;;;;;;5007796;28;20704;-44
2022/11/14 06:56:19;;;;;;;75.57;47.83;;;;;;;;;;5006796;28;20177;-43
2022/11/14 06:58:46;;;;;;;72.27;45.53;;;;;;;;;;5012070;28;20619;-44
2022/11/14 07:01:19;;;;;;;73.83;46.30;;;;;;;;;;5003626;28;20180;-44
2022/11/14 07:03:45;;;;;;;74.23;48.10;;;;;;;;;;5009934;28;20172;-44
2022/11/14 07:06:13;;;;;;;68.70;44.73;;;;;;;;;;5010301;28;20495;-44
2022/11/14 07:08:39;;;;;;;78.60;49.90;;;;;;;;;;5011669;28;20233;-45
2022/11/14 07:11:10;;;;;;;75.50;48.70;;;;;;;;;;5008756;28;20639;-44
2022/11/14 07:13:36;;;;;;;72.13;48.63;;;;;;;;;;5009274;28;20176;-45
2022/11/14 07:16:03;;;;;;;77.23;50.43;;;;;;;;;;5011935;28;20287;-45
2022/11/14 07:18:30;;;;;;;76.77;49.47;;;;;;;;;;5010563;28;21126;-45
2022/11/14 07:20:57;;;;;;;84.43;52.03;;;;;;;;;;5007453;28;20199;-45
2022/11/14 07:23:23;;;;;;;82.60;50.83;;;;;;;;;;5008262;28;20176;-45
2022/11/14 07:25:49;;;;;;;77.07;50.40;;;;;;;;;;5010590;28;20640;-45
2022/11/14 07:28:15;;;;;;;79.23;50.63;;;;;;;;;;5005775;28;20292;-45
2022/11/14 07:30:41;;;;;;;75.83;49.53;;;;;;;;;;5006136;28;20744;-45
2022/11/14 07:33:07;;;;;;;82.47;52.17;;;;;;;;;;5006555;28;20181;-45
2022/11/14 07:35:33;;;;;;;80.10;51.87;;;;;;;;;;5007031;28;20612;-45
2022/11/14 07:38:03;;;;;;;73.93;49.60;;;;;;;;;;5006119;28;20196;-45
2022/11/14 07:40:29;;;;;;;76.40;49.37;;;;;;;;;;5007570;28;20232;-45
2022/11/14 07:42:59;;;;;;;75.23;49.50;;;;;;;;;;5007769;28;20583;-45
2022/11/14 07:45:26;;;;;;;86.47;52.10;;;;;;;;;;5008135;28;20546;-45
2022/11/14 07:47:56;;;;;;;82.43;52.77;;;;;;;;;;5006975;28;20176;-45
2022/11/14 07:50:22;;;;;;;78.20;50.43;;;;;;;;;;5006599;28;20586;-45
2022/11/14 07:52:52;;;;;;;79.40;50.50;;;;;;;;;;5009382;28;20180;-45
2022/11/14 07:55:18;;;;;;;78.60;49.63;;;;;;;;;;5009467;28;20616;-45
2022/11/14 07:57:44;;;;;;;82.47;51.83;;;;;;;;;;5007795;28;20510;-45
2022/11/14 08:00:11;;;;;;;79.93;50.60;;;;;;;;;;5005072;28;20204;-45
2022/11/14 08:02:37;;;;;;;78.30;51.83;;;;;;;;;;5008268;28;20731;-45
2022/11/14 08:05:03;;;;;;;75.60;49.00;;;;;;;;;;5009129;28;20569;-45
2022/11/14 08:07:29;;;;;;;76.00;49.53;;;;;;;;;;5002193;28;20522;-45
2022/11/14 08:09:55;;;;;;;70.13;48.30;;;;;;;;;;5006936;28;20446;-45
2022/11/14 08:12:21;;;;;;;73.83;47.90;;;;;;;;;;5008968;28;20236;-45
2022/11/14 08:14:47;;;;;;;69.60;47.10;;;;;;;;;;5011683;28;20181;-45
2022/11/14 08:17:13;;;;;;;69.03;45.97;;;;;;;;;;4990556;28;21008;-45
2022/11/14 08:19:39;;;;;;;66.37;44.17;;;;;;;;;;5012693;28;20200;-43
2022/11/14 08:22:09;;;;;;;69.10;45.47;;;;;;;;;;5009734;28;20203;-43
2022/11/14 08:24:35;;;;;;;64.30;44.60;;;;;;;;;;5011250;28;20183;-43
2022/11/14 08:27:01;;;;;;;64.97;43.97;;;;;;;;;;5011479;28;20372;-43
2022/11/14 08:29:27;;;;;;;59.17;42.27;;;;;;;;;;5007926;28;20176;-43
2022/11/14 08:31:53;;;;;;;68.43;45.43;;;;;;;;;;5011800;28;20172;-43
2022/11/14 08:34:21;;;;;;;58.97;42.17;;;;;;;;;;5012945;28;20184;-43
2022/11/14 08:36:47;;;;;;;64.60;43.37;;;;;;;;;;5009280;28;20762;-44
2022/11/14 08:39:13;;;;;;;61.50;43.97;;;;;;;;;;5012406;28;20712;-43
2022/11/14 08:41:39;;;;;;;60.83;41.63;;;;;;;;;;5011448;28;21121;-43
2022/11/14 08:44:05;;;;;;;63.67;42.53;;;;;;;;;;5008371;28;20237;-43
2022/11/14 08:46:31;;;;;;;62.70;42.97;;;;;;;;;;5012852;28;20720;-43
2022/11/14 08:48:57;;;;;;;52.63;37.10;;;;;;;;;;5012647;28;20183;-43
2022/11/14 08:51:23;;;;;;;57.17;39.43;;;;;;;;;;5009238;28;20193;-44
2022/11/14 08:53:51;;;;;;;61.43;41.40;;;;;;;;;;5010889;28;20168;-43
2022/11/14 08:56:17;;;;;;;56.57;40.63;;;;;;;;;;5012119;28;20187;-43
2022/11/14 08:58:43;;;;;;;56.03;39.87;;;;;;;;;;4998919;28;20722;-43
2022/11/14 09:01:12;;;;;;;53.77;36.63;;;;;;;;;;4999852;28;20206;-43
2022/11/14 09:03:38;;;;;;;51.57;36.57;;;;;;;;;;5013855;28;20175;-43
2022/11/14 09:06:04;;;;;;;53.20;36.83;;;;;;;;;;5001349;28;20812;-46
2022/11/14 09:08:31;;;;;;;52.97;37.07;;;;;;;;;;5011643;28;20172;-43
2022/11/14 09:11:01;;;;;;;49.60;36.50;;;;;;;;;;5009965;28;20800;-44
2022/11/14 09:13:27;;;;;;;57.47;39.80;;;;;;;;;;5008323;28;20595;-44
2022/11/14 09:15:53;;;;;;;53.33;38.07;;;;;;;;;;5011850;28;20174;-44
2022/11/14 09:18:19;;;;;;;56.13;40.40;;;;;;;;;;5008950;28;20217;-44
2022/11/14 09:20:45;;;;;;;52.03;37.00;;;;;;;;;;5009466;28;20288;-44
2022/11/14 09:23:11;;;;;;;56.67;37.60;;;;;;;;;;5008488;28;20669;-44
2022/11/14 09:25:37;;;;;;;52.37;36.87;;;;;;;;;;5012030;28;20624;-44
2022/11/14 09:28:07;;;;;;;44.37;33.93;;;;;;;;;;5010062;28;20633;-44
2022/11/14 09:30:34;;;;;;;48.80;35.50;;;;;;;;;;5010728;28;20169;-44
2022/11/14 09:33:01;;;;;;;51.13;37.47;;;;;;;;;;5009554;28;20188;-44
2022/11/14 09:35:27;;;;;;;53.73;37.70;;;;;;;;;;5010923;28;20253;-44
2022/11/14 09:38:07;;;;;;;49.90;37.30;;;;;;;;;;4990726;28;20207;-44
2022/11/14 09:40:43;;;;;;;49.87;35.53;;;;;;;;;;5008978;28;20369;-44
2022/11/14 09:43:28;;;;;;;48.53;36.07;;;;;;;;;;5011028;28;20916;-44
2022/11/14 09:45:54;;;;;;;49.90;34.50;;;;;;;;;;5006039;28;20390;-44
2022/11/14 09:48:24;;;;;;;44.97;34.57;;;;;;;;;;5010165;28;20246;-44
2022/11/14 09:51:00;;;;;;;44.67;32.50;;;;;;;;;;5011708;28;20208;-44
2022/11/14 09:53:49;;;;;;;40.33;31.07;;;;;;;;;;5009105;28;20183;-44
2022/11/14 09:56:23;;;;;;;41.03;29.97;;;;;;;;;;5007040;28;20228;-44
2022/11/14 09:58:49;;;;;;;39.47;30.27;;;;;;;;;;5010206;28;20180;-44
2022/11/14 10:01:24;;;;;;;40.83;31.50;;;;;;;;;;5012547;28;20194;-44
2022/11/14 10:03:55;;;;;;;37.67;29.83;;;;;;;;;;5009753;28;20180;-44
2022/11/14 10:06:30;;;;;;;41.27;31.93;;;;;;;;;;5007713;28;20888;-44
2022/11/14 10:09:10;;;;;;;43.87;33.87;;;;;;;;;;5009818;28;20191;-44
2022/11/14 10:11:46;;;;;;;44.73;33.03;;;;;;;;;;5010119;28;20871;-44
2022/11/14 10:14:21;;;;;;;46.13;33.27;;;;;;;;;;5014343;28;20841;-44
2022/11/14 10:16:50;;;;;;;39.60;31.53;;;;;;;;;;5012962;28;20637;-44
2022/11/14 10:19:31;;;;;;;37.43;28.47;;;;;;;;;;5007863;28;20197;-44
2022/11/14 10:22:26;;;;;;;33.83;26.87;;;;;;;;;;5007940;28;20181;-43
2022/11/14 10:25:11;;;;;;;39.80;30.60;;;;;;;;;;4991758;28;20228;-44
2022/11/14 10:27:49;;;;;;;39.50;30.73;;;;;;;;;;5008605;28;20972;-44
2022/11/14 10:30:18;;;;;;;41.33;30.43;;;;;;;;;;5007947;28;20233;-44
2022/11/14 10:32:53;;;;;;;33.03;25.27;;;;;;;;;;5010216;28;20377;-44
2022/11/14 10:35:22;;;;;;;27.60;22.70;;;;;;;;;;5008750;28;20289;-44
2022/11/14 10:37:58;;;;;;;29.30;22.50;;;;;;;;;;5009000;28;20946;-44
2022/11/14 10:40:24;;;;;;;29.40;22.17;;;;;;;;;;5010228;28;20375;-44
2022/11/14 10:42:54;;;;;;;27.33;22.27;;;;;;;;;;5012635;28;20164;-44
2022/11/14 10:45:49;;;;;;;29.97;22.93;;;;;;;;;;5008236;28;20169;-44
2022/11/14 10:48:17;;;;;;;27.07;22.43;;;;;;;;;;4910734;28;20425;-44
2022/11/14 10:50:48;;;;;;;27.87;23.53;;;;;;;;;;5015245;28;20590;-44
2022/11/14 10:53:41;;;;;;;30.60;23.77;;;;;;;;;;5011286;28;20707;-44
2022/11/14 10:56:09;;;;;;;29.03;23.30;;;;;;;;;;5005905;28;20481;-44
2022/11/14 10:58:35;;;;;;;28.70;23.73;;;;;;;;;;5010552;28;20192;-44
2022/11/14 11:01:28;;;;;;;29.13;23.23;;;;;;;;;;5010166;28;20484;-44
2022/11/14 11:03:54;;;;;;;31.03;24.07;;;;;;;;;;4972111;28;20575;-44
2022/11/14 11:06:27;;;;;;;30.67;24.23;;;;;;;;;;5010826;28;20399;-44
2022/11/14 11:11:38;;;;;;;31.03;25.13;;;;;;;;;;5008016;28;20191;-44
2022/11/14 11:14:05;;;;;;;31.70;26.03;;;;;;;;;;5009239;28;20186;-44
2022/11/14 11:16:31;;;;;;;33.17;26.50;;;;;;;;;;5009764;28;20223;-44
2022/11/14 11:19:13;;;;;;;31.60;24.60;;;;;;;;;;5009873;28;20167;-44
2022/11/14 11:21:49;;;;;;;32.40;25.37;;;;;;;;;;5007246;28;20183;-44
2022/11/14 11:24:35;;;;;;;31.87;25.93;;;;;;;;;;5007826;28;20679;-44
2022/11/14 11:27:21;;;;;;;32.70;25.73;;;;;;;;;;5010043;28;20207;-43
2022/11/14 11:30:03;;;;;;;33.73;26.23;;;;;;;;;;5010196;28;20242;-44
2022/11/14 11:32:29;;;;;;;32.70;26.73;;;;;;;;;;5008090;28;21008;-44
2022/11/14 11:34:56;;;;;;;35.27;28.13;;;;;;;;;;5007668;28;21210;-44
2022/11/14 11:37:25;;;;;;;33.00;26.57;;;;;;;;;;5010358;28;20227;-44
2022/11/14 11:39:54;;;;;;;33.83;27.43;;;;;;;;;;5007678;28;20687;-44
2022/11/14 11:42:23;;;;;;;32.60;25.60;;;;;;;;;;5008725;28;20226;-44
2022/11/14 11:44:53;;;;;;;34.50;25.90;;;;;;;;;;5011428;28;20164;-44
2022/11/14 11:47:19;;;;;;;31.77;25.93;;;;;;;;;;5004841;28;20336;-44
2022/11/14 11:49:52;;;;;;;31.00;25.53;;;;;;;;;;5008292;28;20177;-44
2022/11/14 11:52:27;;;;;;;31.47;24.93;;;;;;;;;;5009440;28;20176;-44
2022/11/14 11:54:56;;;;;;;27.63;22.47;;;;;;;;;;5008330;28;20179;-44
2022/11/14 11:57:24;;;;;;;35.07;26.40;;;;;;;;;;5007948;28;20192;-44
2022/11/14 11:59:52;;;;;;;31.40;25.63;;;;;;;;;;5011008;28;20180;-44
2022/11/14 12:02:23;;;;;;;33.13;26.30;;;;;;;;;;5007389;28;20177;-44
2022/11/14 12:04:50;;;;;;;31.80;25.07;;;;;;;;;;5004154;28;20461;-44
2022/11/14 12:07:18;;;;;;;32.47;25.40;;;;;;;;;;5010325;28;20183;-44
2022/11/14 12:09:44;;;;;;;34.90;27.27;;;;;;;;;;5005562;28;20199;-44
2022/11/14 12:12:13;;;;;;;31.60;25.50;;;;;;;;;;5009726;28;20212;-44
2022/11/14 12:14:39;;;;;;;34.20;27.73;;;;;;;;;;5020003;28;20471;-44
2022/11/14 12:17:20;;;;;;;33.50;27.30;;;;;;;;;;5010185;28;20337;-44
2022/11/14 12:19:54;;;;;;;35.60;29.67;;;;;;;;;;5007693;28;20180;-44
2022/11/14 12:22:20;;;;;;;36.80;29.67;;;;;;;;;;5008347;28;20171;-44
2022/11/14 12:24:49;;;;;;;38.07;30.70;;;;;;;;;;5007055;28;20176;-44
2022/11/14 12:27:25;;;;;;;36.53;30.10;;;;;;;;;;5007813;28;20253;-44
2022/11/14 12:30:09;;;;;;;38.97;31.30;;;;;;;;;;5005480;28;20191;-44
2022/11/14 12:32:56;;;;;;;46.80;35.43;;;;;;;;;;5009879;28;20572;-44
2022/11/14 12:35:28;;;;;;;43.57;34.60;;;;;;;;;;5003343;28;20176;-44
2022/11/14 12:37:55;;;;;;;48.20;37.73;;;;;;;;;;5006808;28;20399;-44
2022/11/14 12:40:24;;;;;;;49.50;39.07;;;;;;;;;;5006148;28;20739;-44
2022/11/14 12:42:50;;;;;;;53.27;41.97;;;;;;;;;;5009204;28;20177;-44
2022/11/14 12:45:35;;;;;;;55.63;43.23;;;;;;;;;;5006897;28;20172;-44
2022/11/14 12:48:20;;;;;;;56.83;43.77;;;;;;;;;;5008534;28;20180;-44
2022/11/14 12:50:46;;;;;;;59.07;45.60;;;;;;;;;;5009456;28;20177;-44
2022/11/14 12:53:36;;;;;;;56.63;43.67;;;;;;;;;;5006859;28;20625;-44
2022/11/14 12:56:21;;;;;;;56.97;44.03;;;;;;;;;;5007654;28;20331;-44
2022/11/14 12:59:05;;;;;;;60.60;45.30;;;;;;;;;;5007480;28;20189;-43
2022/11/14 13:01:50;;;;;;;55.50;41.70;;;;;;;;;;5008635;28;20484;-43
2022/11/14 13:04:36;;;;;;;51.47;40.97;;;;;;;;;;5011841;28;20668;-44
2022/11/14 13:07:21;;;;;;;48.70;39.00;;;;;;;;;;5012587;28;21023;-44
2022/11/14 13:09:53;;;;;;;50.93;39.30;;;;;;;;;;5006313;28;20168;-46
2022/11/14 13:23:54;;;;;;;50.90;39.50;;;;;;;;;;5008950;28;20671;-43
2022/11/14 13:26:20;;;;;;;46.47;37.00;;;;;;;;;;4988566;28;20494;-43
2022/11/14 13:28:51;;;;;;;44.07;35.20;;;;;;;;;;5006744;28;20660;-44
2022/11/14 13:31:24;;;;;;;43.87;34.67;;;;;;;;;;5008364;28;20483;-44
2022/11/14 13:33:59;;;;;;;44.10;35.07;;;;;;;;;;5006953;28;20751;-44
2022/11/14 13:36:44;;;;;;;44.37;34.50;;;;;;;;;;5008547;28;20165;-43
2022/11/14 13:39:29;;;;;;;46.80;35.43;;;;;;;;;;5011229;28;20579;-44
2022/11/14 13:42:01;;;;;;;43.57;34.63;;;;;;;;;;5005871;28;20256;-44
2022/11/14 13:44:33;;;;;;;47.10;33.70;;;;;;;;;;5009066;28;20177;-44
2022/11/14 13:47:17;;;;;;;43.87;33.13;;;;;;;;;;5009722;28;20776;-45
2022/11/14 13:49:45;;;;;;;39.97;31.50;;;;;;;;;;5008965;28;20468;-44
2022/11/14 13:52:12;;;;;;;37.93;30.57;;;;;;;;;;5009818;28;20537;-44
2022/11/14 13:54:44;;;;;;;38.57;30.13;;;;;;;;;;5011075;28;20176;-44
2022/11/14 13:57:26;;;;;;;37.17;29.93;;;;;;;;;;5009022;28;20237;-44
2022/11/14 14:00:06;;;;;;;39.67;31.17;;;;;;;;;;5008822;28;20176;-44
2022/11/14 14:02:57;;;;;;;38.43;30.43;;;;;;;;;;5009903;28;20175;-44
2022/11/14 14:05:32;;;;;;;38.07;29.90;;;;;;;;;;5000537;28;20257;-44
2022/11/14 14:08:01;;;;;;;38.40;30.17;;;;;;;;;;5008661;28;20180;-44
2022/11/14 14:10:34;;;;;;;37.33;29.47;;;;;;;;;;5010560;28;20230;-44
2022/11/14 14:13:06;;;;;;;38.47;30.27;;;;;;;;;;5004791;28;20643;-44
2022/11/14 14:15:40;;;;;;;37.93;30.03;;;;;;;;;;5005412;28;20266;-44
2022/11/14 14:18:07;;;;;;;38.37;31.43;;;;;;;;;;5007662;28;20272;-44
2022/11/14 14:20:41;;;;;;;44.73;32.73;;;;;;;;;;5008407;28;20536;-44
2022/11/14 14:23:25;;;;;;;39.53;31.53;;;;;;;;;;5005055;28;20171;-44
2022/11/14 14:26:06;;;;;;;44.10;35.07;;;;;;;;;;5008747;28;20189;-44
2022/11/14 14:28:48;;;;;;;46.50;34.20;;;;;;;;;;5009105;28;20737;-44
2022/11/14 14:31:16;;;;;;;41.27;32.63;;;;;;;;;;5005506;28;20752;-44
2022/11/14 14:33:43;;;;;;;42.60;33.37;;;;;;;;;;5005884;28;20641;-44
2022/11/14 14:36:20;;;;;;;42.70;32.70;;;;;;;;;;4992710;28;20560;-43
2022/11/14 14:38:46;;;;;;;44.47;34.00;;;;;;;;;;4990184;28;20193;-44
2022/11/14 14:41:16;;;;;;;41.60;32.57;;;;;;;;;;5006087;28;20197;-44